Time;durP1;ratioP1;P1;durP2;ratioP2;P2;SDS_P1;SDS_P2;PMS_P1;PMS_P2;Temp;Humidity;BMP_temperature;BMP_pressure;BME280_temperature;BME280_humidity;BME280_pressure;Samples;Min_cycle;Max_cycle;Signal;HPM_P1;HPM_P2
2022/08/24 00:02:03;;;;;;;;;;;;;;;;;;6235398;22;20043;-85
2022/08/24 00:04:29;;;;;;;;;;;;;;;;;;6234875;22;19982;-86
2022/08/24 00:06:55;;;;;;;;;;;;;;;;;;6210502;22;19937;-86
2022/08/24 00:09:21;;;;;;;;;;;;;;;;;;6211096;22;20178;-86
2022/08/24 00:11:47;;;;;;;;;;;;;;;;;;6207400;22;19950;-86
2022/08/24 00:14:13;;;;;;;;;;;;;;;;;;6238519;22;20244;-86
2022/08/24 00:16:39;;;;;;;;;;;;;;;;;;6235357;22;20331;-85
2022/08/24 00:19:05;;;;;;;;;;;;;;;;;;6210603;22;19926;-86
2022/08/24 00:21:34;;;;;;;;;;;;;;;;;;6210219;22;20418;-86
2022/08/24 00:24:00;;;;;;;;;;;;;;;;;;6212394;22;19982;-85
2022/08/24 00:26:26;;;;;;;;;;;;;;;;;;6211177;22;19993;-86
2022/08/24 00:28:52;;;;;;;;;;;;;;;;;;6237638;22;19915;-85
2022/08/24 00:31:18;;;;;;;;;;;;;;;;;;6214063;22;19942;-85
2022/08/24 00:33:44;;;;;;;;;;;;;;;;;;6210518;22;19920;-85
2022/08/24 00:36:10;;;;;;;;;;;;;;;;;;6212832;22;20298;-85
2022/08/24 00:38:36;;;;;;;;;;;;;;;;;;6205928;22;19919;-85
2022/08/24 00:41:02;;;;;;;;;;;;;;;;;;6236268;22;19915;-85
2022/08/24 00:43:28;;;;;;;;;;;;;;;;;;6235802;22;19969;-86
2022/08/24 00:45:54;;;;;;;;;;;;;;;;;;6237478;22;19925;-85
2022/08/24 00:48:20;;;;;;;;;;;;;;;;;;6263498;22;20336;-86
2022/08/24 00:50:46;;;;;;;;;;;;;;;;;;6235523;22;20700;-86
2022/08/24 00:53:12;;;;;;;;;;;;;;;;;;6236120;22;20403;-86
2022/08/24 00:55:38;;;;;;;;;;;;;;;;;;6207702;22;19923;-85
2022/08/24 00:58:06;;;;;;;;;;;;;;;;;;6237268;22;19915;-85
2022/08/24 01:00:32;;;;;;;;;;;;;;;;;;6236531;22;19985;-86
2022/08/24 01:03:00;;;;;;;;;;;;;;;;;;6211242;22;20418;-86
2022/08/24 01:05:26;;;;;;;;;;;;;;;;;;6234820;22;19915;-86
2022/08/24 01:07:52;;;;;;;;;;;;;;;;;;6238065;22;19919;-86
2022/08/24 01:10:18;;;;;;;;;;;;;;;;;;6212634;22;19922;-86
2022/08/24 01:12:44;;;;;;;;;;;;;;;;;;6208829;22;19923;-86
2022/08/24 01:15:10;;;;;;;;;;;;;;;;;;6211857;22;19986;-86
2022/08/24 01:20:22;;;;;;;;;;;;;;;;;;6237853;22;19929;-85
2022/08/24 01:22:48;;;;;;;;;;;;;;;;;;6208005;22;20001;-86
2022/08/24 01:25:14;;;;;;;;;;;;;;;;;;6212561;22;19946;-86
2022/08/24 01:27:46;;;;;;;;;;;;;;;;;;6234090;22;19930;-86
2022/08/24 01:30:12;;;;;;;;;;;;;;;;;;6236759;22;19919;-86
2022/08/24 01:32:38;;;;;;;;;;;;;;;;;;6207519;22;20637;-86
2022/08/24 01:35:04;;;;;;;;;;;;;;;;;;6208023;22;19920;-86
2022/08/24 01:37:31;;;;;;;;;;;;;;;;;;6209105;22;19927;-86
2022/08/24 01:39:57;;;;;;;;;;;;;;;;;;6211481;22;20343;-86
2022/08/24 01:42:25;;;;;;;;;;;;;;;;;;6209470;22;19919;-86
2022/08/24 01:44:51;;;;;;;;;;;;;;;;;;6210368;22;19977;-86
2022/08/24 01:47:17;;;;;;;;;;;;;;;;;;6210921;22;19925;-85
2022/08/24 01:49:43;;;;;;;;;;;;;;;;;;6208624;22;19919;-86
2022/08/24 01:52:09;;;;;;;;;;;;;;;;;;6210600;22;19915;-86
2022/08/24 01:54:35;;;;;;;;;;;;;;;;;;6209289;22;19976;-86
2022/08/24 01:57:02;;;;;;;;;;;;;;;;;;6211095;22;20000;-86
2022/08/24 01:59:28;;;;;;;;;;;;;;;;;;6208482;22;19925;-86
2022/08/24 02:01:54;;;;;;;;;;;;;;;;;;6237405;22;19919;-86
2022/08/24 02:04:20;;;;;;;;;;;;;;;;;;6210577;22;19972;-86
2022/08/24 02:06:46;;;;;;;;;;;;;;;;;;6208705;22;19930;-86
2022/08/24 02:09:12;;;;;;;;;;;;;;;;;;6211012;22;19990;-86
2022/08/24 02:11:38;;;;;;;;;;;;;;;;;;6234278;22;20354;-86
2022/08/24 02:14:04;;;;;;;;;;;;;;;;;;6236322;22;20335;-86
2022/08/24 02:16:30;;;;;;;;;;;;;;;;;;6231993;22;19923;-86
2022/08/24 02:18:56;;;;;;;;;;;;;;;;;;6210211;22;19972;-86
2022/08/24 02:21:22;;;;;;;;;;;;;;;;;;6211653;22;20225;-85
2022/08/24 02:23:48;;;;;;;;;;;;;;;;;;6233617;22;19919;-86
2022/08/24 02:26:13;;;;;;;;;;;;;;;;;;6210056;22;19919;-86
2022/08/24 02:28:39;;;;;;;;;;;;;;;;;;6208163;22;20316;-85
2022/08/24 02:31:05;;;;;;;;;;;;;;;;;;6211626;22;20235;-86
2022/08/24 02:33:31;;;;;;;;;;;;;;;;;;6232802;22;19969;-86
2022/08/24 02:35:57;;;;;;;;;;;;;;;;;;6213014;22;19946;-85
2022/08/24 02:38:23;;;;;;;;;;;;;;;;;;6214564;22;19919;-86
2022/08/24 02:40:49;;;;;;;;;;;;;;;;;;6210423;22;19919;-86
2022/08/24 02:43:15;;;;;;;;;;;;;;;;;;6212731;22;19968;-86
2022/08/24 02:45:42;;;;;;;;;;;;;;;;;;6235327;22;19916;-86
2022/08/24 02:48:08;;;;;;;;;;;;;;;;;;6236334;22;19915;-86
2022/08/24 02:50:34;;;;;;;;;;;;;;;;;;6209233;22;19918;-86
2022/08/24 02:53:00;;;;;;;;;;;;;;;;;;6212978;22;20229;-85
2022/08/24 02:55:26;;;;;;;;;;;;;;;;;;6212118;22;19919;-86
2022/08/24 02:57:52;;;;;;;;;;;;;;;;;;6213378;22;19947;-86
2022/08/24 03:00:18;;;;;;;;;;;;;;;;;;6238091;22;19919;-85
2022/08/24 03:02:44;;;;;;;;;;;;;;;;;;6206941;22;20002;-85
2022/08/24 03:05:10;;;;;;;;;;;;;;;;;;6237472;22;20107;-86
2022/08/24 03:07:36;;;;;;;;;;;;;;;;;;6235310;22;19919;-86
2022/08/24 03:10:02;;;;;;;;;;;;;;;;;;6237757;22;19946;-86
2022/08/24 03:12:28;;;;;;;;;;;;;;;;;;6262650;22;19969;-86
2022/08/24 03:14:54;;;;;;;;;;;;;;;;;;6214121;22;20284;-86
2022/08/24 03:17:22;;;;;;;;;;;;;;;;;;6237732;22;20006;-86
2022/08/24 03:19:48;;;;;;;;;;;;;;;;;;6211813;22;19915;-85
2022/08/24 03:22:14;;;;;;;;;;;;;;;;;;6238339;22;20296;-85
2022/08/24 03:24:40;;;;;;;;;;;;;;;;;;6209943;22;19923;-86
2022/08/24 03:27:06;;;;;;;;;;;;;;;;;;6237046;22;19926;-86
2022/08/24 03:29:33;;;;;;;;;;;;;;;;;;6237028;22;20282;-87
2022/08/24 03:31:59;;;;;;;;;;;;;;;;;;6237865;22;20185;-86
2022/08/24 03:34:26;;;;;;;;;;;;;;;;;;6238246;22;19964;-87
2022/08/24 03:36:54;;;;;;;;;;;;;;;;;;6214782;22;19922;-86
2022/08/24 03:39:20;;;;;;;;;;;;;;;;;;6269386;22;19919;-86
2022/08/24 03:41:46;;;;;;;;;;;;;;;;;;6240377;22;19946;-87
2022/08/24 03:44:12;;;;;;;;;;;;;;;;;;6215391;22;19930;-86
2022/08/24 03:46:38;;;;;;;;;;;;;;;;;;6237310;22;20251;-87
2022/08/24 03:49:04;;;;;;;;;;;;;;;;;;6267080;22;19915;-87
2022/08/24 03:51:30;;;;;;;;;;;;;;;;;;6264270;22;19923;-86
2022/08/24 03:53:56;;;;;;;;;;;;;;;;;;6266110;22;19919;-87
2022/08/24 03:56:22;;;;;;;;;;;;;;;;;;6268124;22;19955;-87
2022/08/24 03:58:48;;;;;;;;;;;;;;;;;;6265704;22;19919;-86
2022/08/24 04:01:16;;;;;;;;;;;;;;;;;;6266625;22;19922;-86
2022/08/24 04:03:42;;;;;;;;;;;;;;;;;;6236617;22;19923;-87
2022/08/24 04:06:08;;;;;;;;;;;;;;;;;;6240163;22;20384;-86
2022/08/24 04:08:34;;;;;;;;;;;;;;;;;;6263675;22;19994;-86
2022/08/24 04:11:00;;;;;;;;;;;;;;;;;;6267343;22;19923;-87
2022/08/24 04:13:26;;;;;;;;;;;;;;;;;;6265317;22;19915;-87
2022/08/24 04:15:52;;;;;;;;;;;;;;;;;;6241008;22;19919;-87
2022/08/24 04:18:18;;;;;;;;;;;;;;;;;;6239387;22;20351;-87
2022/08/24 04:20:44;;;;;;;;;;;;;;;;;;6264806;22;19919;-85
2022/08/24 04:23:10;;;;;;;;;;;;;;;;;;6267688;22;19968;-85
2022/08/24 04:25:36;;;;;;;;;;;;;;;;;;6264141;22;19919;-84
2022/08/24 04:28:04;;;;;;;;;;;;;;;;;;6240806;22;20270;-84
2022/08/24 04:30:30;;;;;;;;;;;;;;;;;;6209784;22;19935;-84
2022/08/24 04:32:56;;;;;;;;;;;;;;;;;;6239660;22;19947;-86
2022/08/24 04:35:22;;;;;;;;;;;;;;;;;;6238486;22;19926;-81
2022/08/24 04:37:48;;;;;;;;;;;;;;;;;;6260761;22;19923;-81
2022/08/24 04:40:14;;;;;;;;;;;;;;;;;;6263218;22;19933;-81
2022/08/24 04:42:40;;;;;;;;;;;;;;;;;;6234564;22;20381;-81
2022/08/24 04:45:06;;;;;;;;;;;;;;;;;;6238118;22;20240;-81
2022/08/24 04:47:32;;;;;;;;;;;;;;;;;;6234540;22;20378;-81
2022/08/24 04:49:59;;;;;;;;;;;;;;;;;;6209616;22;19935;-81
2022/08/24 04:52:24;;;;;;;;;;;;;;;;;;6233859;22;19923;-81
2022/08/24 04:54:50;;;;;;;;;;;;;;;;;;6211221;22;20045;-81
2022/08/24 04:57:16;;;;;;;;;;;;;;;;;;6236603;22;19919;-81
2022/08/24 04:59:42;;;;;;;;;;;;;;;;;;6210418;22;19919;-81
2022/08/24 05:02:08;;;;;;;;;;;;;;;;;;6235830;22;19919;-81
2022/08/24 05:04:36;;;;;;;;;;;;;;;;;;6237605;22;19919;-81
2022/08/24 05:07:02;;;;;;;;;;;;;;;;;;6240173;22;19950;-81
2022/08/24 05:09:28;;;;;;;;;;;;;;;;;;6237300;22;19919;-82
2022/08/24 05:11:56;;;;;;;;;;;;;;;;;;6215737;22;19930;-81
2022/08/24 05:14:22;;;;;;;;;;;;;;;;;;6214670;22;20363;-81
2022/08/24 05:16:48;;;;;;;;;;;;;;;;;;6213190;22;20241;-81
2022/08/24 05:19:13;;;;;;;;;;;;;;;;;;6241385;22;19915;-81
2022/08/24 05:21:43;;;;;;;;;;;;;;;;;;6234760;22;19925;-81
2022/08/24 05:24:08;;;;;;;;;;;;;;;;;;6213322;22;20295;-81
2022/08/24 05:26:34;;;;;;;;;;;;;;;;;;6236512;22;20332;-81
2022/08/24 05:29:00;;;;;;;;;;;;;;;;;;6238095;22;20018;-81
2022/08/24 05:31:26;;;;;;;;;;;;;;;;;;6234802;22;19919;-81
2022/08/24 05:33:52;;;;;;;;;;;;;;;;;;6212767;22;19986;-81
2022/08/24 05:36:18;;;;;;;;;;;;;;;;;;6238433;22;19915;-81
2022/08/24 05:38:44;;;;;;;;;;;;;;;;;;6211306;22;20883;-81
2022/08/24 05:41:10;;;;;;;;;;;;;;;;;;6239039;22;19943;-81
2022/08/24 05:43:36;;;;;;;;;;;;;;;;;;6235341;22;20006;-81
2022/08/24 05:46:02;;;;;;;;;;;;;;;;;;6239899;22;19916;-81
2022/08/24 05:48:28;;;;;;;;;;;;;;;;;;6211154;22;19915;-81
2022/08/24 05:50:54;;;;;;;;;;;;;;;;;;6213295;22;19922;-81
2022/08/24 05:53:20;;;;;;;;;;;;;;;;;;6239589;22;20430;-82
2022/08/24 05:55:46;;;;;;;;;;;;;;;;;;6212530;22;20406;-82
2022/08/24 05:58:12;;;;;;;;;;;;;;;;;;6212597;22;20331;-82
2022/08/24 06:00:38;;;;;;;;;;;;;;;;;;6211090;22;20628;-81
2022/08/24 06:03:04;;;;;;;;;;;;;;;;;;6210351;22;19962;-81
2022/08/24 06:05:30;;;;;;;;;;;;;;;;;;6260127;22;19919;-81
2022/08/24 06:07:55;;;;;;;;;;;;;;;;;;6214125;22;19937;-81
2022/08/24 06:10:21;;;;;;;;;;;;;;;;;;6215010;22;19919;-81
2022/08/24 06:12:47;;;;;;;;;;;;;;;;;;6236147;22;20302;-82
2022/08/24 06:15:14;;;;;;;;;;;;;;;;;;6239272;22;20335;-81
2022/08/24 06:17:40;;;;;;;;;;;;;;;;;;6235306;22;19990;-82
2022/08/24 06:20:06;;;;;;;;;;;;;;;;;;6237057;22;20315;-83
2022/08/24 06:22:32;;;;;;;;;;;;;;;;;;6210450;22;19951;-82
2022/08/24 06:27:44;;;;;;;;;;;;;;;;;;6236434;22;19921;-81
2022/08/24 06:30:10;;;;;;;;;;;;;;;;;;6239656;22;19943;-81
2022/08/24 06:32:35;;;;;;;;;;;;;;;;;;6236672;22;19919;-81
2022/08/24 06:35:01;;;;;;;;;;;;;;;;;;6240025;22;19927;-81
2022/08/24 06:37:27;;;;;;;;;;;;;;;;;;6237025;22;19919;-81
2022/08/24 06:39:53;;;;;;;;;;;;;;;;;;6267003;22;19920;-81
2022/08/24 06:42:19;;;;;;;;;;;;;;;;;;6214863;22;19922;-81
2022/08/24 06:44:45;;;;;;;;;;;;;;;;;;6207930;22;19923;-81
2022/08/24 06:47:11;;;;;;;;;;;;;;;;;;6238122;22;20237;-82
2022/08/24 06:49:37;;;;;;;;;;;;;;;;;;6236441;22;19989;-81
2022/08/24 06:52:03;;;;;;;;;;;;;;;;;;6240412;22;19915;-81
2022/08/24 06:54:29;;;;;;;;;;;;;;;;;;6232085;22;19966;-82
2022/08/24 06:56:57;;;;;;;;;;;;;;;;;;6208772;22;19923;-81
2022/08/24 06:59:25;;;;;;;;;;;;;;;;;;6238682;22;20406;-81
2022/08/24 07:01:52;;;;;;;;;;;;;;;;;;6236431;22;19919;-81
2022/08/24 07:04:18;;;;;;;;;;;;;;;;;;6213464;22;19923;-81
2022/08/24 07:06:44;;;;;;;;;;;;;;;;;;6211172;22;21006;-81
2022/08/24 07:09:11;;;;;;;;;;;;;;;;;;6239564;22;19926;-82
2022/08/24 07:11:37;;;;;;;;;;;;;;;;;;6234456;22;19927;-82
2022/08/24 07:14:03;;;;;;;;;;;;;;;;;;6215899;22;19926;-81
2022/08/24 07:16:29;;;;;;;;;;;;;;;;;;6238443;22;19957;-81
2022/08/24 07:18:55;;;;;;;;;;;;;;;;;;6216976;22;19915;-81
2022/08/24 07:21:21;;;;;;;;;;;;;;;;;;6238878;22;20477;-82
2022/08/24 07:23:47;;;;;;;;;;;;;;;;;;6213999;22;20073;-82
2022/08/24 07:26:13;;;;;;;;;;;;;;;;;;6241487;22;20336;-82
2022/08/24 07:28:39;;;;;;;;;;;;;;;;;;6236772;22;20335;-81
2022/08/24 07:31:05;;;;;;;;;;;;;;;;;;6268701;22;20276;-82
2022/08/24 07:33:32;;;;;;;;;;;;;;;;;;6238532;22;19923;-82
2022/08/24 07:35:58;;;;;;;;;;;;;;;;;;6214649;22;19919;-81
2022/08/24 07:38:24;;;;;;;;;;;;;;;;;;6241169;22;19926;-82
2022/08/24 07:40:57;;;;;;;;;;;;;;;;;;6213825;22;20351;-84
2022/08/24 07:43:23;;;;;;;;;;;;;;;;;;6215323;22;19923;-85
2022/08/24 07:45:50;;;;;;;;;;;;;;;;;;6213032;22;20397;-85
2022/08/24 07:48:16;;;;;;;;;;;;;;;;;;6240159;22;19915;-85
2022/08/24 07:50:42;;;;;;;;;;;;;;;;;;6237673;22;19992;-84
2022/08/24 07:53:08;;;;;;;;;;;;;;;;;;6215568;22;19919;-85
2022/08/24 07:55:36;;;;;;;;;;;;;;;;;;6213372;22;19966;-85
2022/08/24 07:58:02;;;;;;;;;;;;;;;;;;6214818;22;19954;-85
2022/08/24 08:00:31;;;;;;;;;;;;;;;;;;6207805;22;19919;-84
2022/08/24 08:02:57;;;;;;;;;;;;;;;;;;6238045;22;20007;-85
2022/08/24 08:05:23;;;;;;;;;;;;;;;;;;6237854;22;19965;-84
2022/08/24 08:07:51;;;;;;;;;;;;;;;;;;6239052;22;19919;-85
2022/08/24 08:10:17;;;;;;;;;;;;;;;;;;6213574;22;19915;-85
2022/08/24 08:12:43;;;;;;;;;;;;;;;;;;6212630;22;19942;-85
2022/08/24 08:15:12;;;;;;;;;;;;;;;;;;6215504;22;20251;-85
2022/08/24 08:17:38;;;;;;;;;;;;;;;;;;6212761;22;19919;-85
2022/08/24 08:20:04;;;;;;;;;;;;;;;;;;6239978;22;19915;-85
2022/08/24 08:25:18;;;;;;;;;;;;;;;;;;6268466;22;19926;-84
2022/08/24 08:27:43;;;;;;;;;;;;;;;;;;6234544;22;19915;-85
2022/08/24 08:30:12;;;;;;;;;;;;;;;;;;6238159;22;19921;-85
2022/08/24 08:32:38;;;;;;;;;;;;;;;;;;6237038;22;19916;-85
2022/08/24 08:35:04;;;;;;;;;;;;;;;;;;6265770;22;20390;-85
2022/08/24 08:37:30;;;;;;;;;;;;;;;;;;6238607;22;20216;-85
2022/08/24 08:39:56;;;;;;;;;;;;;;;;;;6269157;22;19970;-85
2022/08/24 08:42:26;;;;;;;;;;;;;;;;;;6216259;22;20275;-85
2022/08/24 08:44:52;;;;;;;;;;;;;;;;;;6240523;22;19919;-85
2022/08/24 08:47:18;;;;;;;;;;;;;;;;;;6215288;22;19955;-85
2022/08/24 08:49:44;;;;;;;;;;;;;;;;;;6235248;22;20244;-84
2022/08/24 08:52:10;;;;;;;;;;;;;;;;;;6267360;22;19986;-85
2022/08/24 08:54:37;;;;;;;;;;;;;;;;;;6237261;22;19919;-85
2022/08/24 08:57:03;;;;;;;;;;;;;;;;;;6267283;22;19926;-85
2022/08/24 08:59:29;;;;;;;;;;;;;;;;;;6234095;22;19951;-85
2022/08/24 09:01:57;;;;;;;;;;;;;;;;;;6267651;22;19923;-85
2022/08/24 09:04:24;;;;;;;;;;;;;;;;;;6261570;22;19923;-86
2022/08/24 09:06:53;;;;;;;;;;;;;;;;;;6235495;22;20128;-85
2022/08/24 09:09:19;;;;;;;;;;;;;;;;;;6214347;22;19915;-85
2022/08/24 09:11:47;;;;;;;;;;;;;;;;;;6210276;22;20231;-85
2022/08/24 09:14:13;;;;;;;;;;;;;;;;;;6210815;22;19986;-85
2022/08/24 09:16:49;;;;;;;;;;;;;;;;;;;;;
2022/08/24 09:27:49;;;;;;;;;;;;;;;;;;6294058;22;19918;-83
2022/08/24 09:30:17;;;;;;;;;;;;;;;;;;6270469;22;20311;-84
2022/08/24 09:32:43;;;;;;;;;;;;;;;;;;6263178;22;19918;-83
2022/08/24 09:35:09;;;;;;;;;;;;;;;;;;6239316;22;19926;-84
2022/08/24 09:37:36;;;;;;;;;;;;;;;;;;6235471;22;19946;-84
2022/08/24 09:40:03;;;;;;;;;;;;;;;;;;6241833;22;19919;-83
2022/08/24 09:42:33;;;;;;;;;;;;;;;;;;6292469;22;20285;-84
2022/08/24 09:44:59;;;;;;;;;;;;;;;;;;6240281;22;20247;-84
2022/08/24 09:47:25;;;;;;;;;;;;;;;;;;6240342;22;19914;-83
2022/08/24 09:50:00;;;;;;;;;;;;;;;;;;6263910;22;20199;-84
2022/08/24 09:52:39;;;;;;;;;;;;;;;;;;6265058;22;19964;-84
2022/08/24 09:55:05;;;;;;;;;;;;;;;;;;6238049;22;19960;-84
2022/08/24 09:57:48;;;;;;;;;;;;;;;;;;;;;
2022/08/24 10:00:40;;;;;;;;;;;;;;;;;;6279956;22;20327;-84
2022/08/24 10:03:06;;;;;;;;;;;;;;;;;;6237512;22;20327;-84
2022/08/24 10:05:33;;;;;;;;;;;;;;;;;;6261734;22;20306;-84
2022/08/24 10:08:03;;;;;;;;;;;;;;;;;;6239490;22;19990;-84
2022/08/24 10:10:29;;;;;;;;;;;;;;;;;;6231354;22;19941;-84
2022/08/24 10:12:55;;;;;;;;;;;;;;;;;;6235602;22;19915;-84
2022/08/24 10:15:26;;;;;;;;;;;;;;;;;;6262672;22;19919;-84
2022/08/24 10:17:52;;;;;;;;;;;;;;;;;;6237409;22;20369;-84
2022/08/24 10:20:22;;;;;;;;;;;;;;;;;;6260435;22;19922;-84
2022/08/24 10:22:58;;;;;;;;;;;;;;;;;;6194764;23;19924;-84
2022/08/24 10:25:27;;;;;;;;;;;;;;;;;;6169992;23;19919;-84
2022/08/24 10:27:59;;;;;;;;;;;;;;;;;;6165483;23;19994;-83
2022/08/24 10:30:25;;;;;;;;;;;;;;;;;;6143963;23;20050;-84
2022/08/24 10:35:55;;;;;;;;;;;;;;;;;;6204176;23;19927;-84
2022/08/24 10:41:07;;;;;;;;;;;;;;;;;;6169704;23;19916;-83
2022/08/24 10:43:34;;;;;;;;;;;;;;;;;;6139412;23;19935;-82
2022/08/24 10:46:00;;;;;;;;;;;;;;;;;;6172935;23;19924;-82
2022/08/24 10:48:27;;;;;;;;;;;;;;;;;;6173487;23;19970;-83
2022/08/24 10:50:53;;;;;;;;;;;;;;;;;;6145536;23;19920;-82
2022/08/24 10:53:20;;;;;;;;;;;;;;;;;;6169331;23;19978;-82
2022/08/24 10:55:46;;;;;;;;;;;;;;;;;;6166965;23;19958;-83
2022/08/24 10:58:12;;;;;;;;;;;;;;;;;;6170779;23;19952;-82
2022/08/24 11:00:38;;;;;;;;;;;;;;;;;;6143109;23;19916;-83
2022/08/24 11:03:04;;;;;;;;;;;;;;;;;;6146392;23;20043;-83
2022/08/24 11:05:30;;;;;;;;;;;;;;;;;;6141821;23;19924;-84
2022/08/24 11:07:56;;;;;;;;;;;;;;;;;;6258728;22;20169;-84
2022/08/24 11:10:22;;;;;;;;;;;;;;;;;;6238889;22;19926;-83
2022/08/24 11:12:57;;;;;;;;;;;;;;;;;;6292728;22;20784;-83
2022/08/24 11:15:28;;;;;;;;;;;;;;;;;;6234018;22;19918;-83
2022/08/24 11:17:57;;;;;;;;;;;;;;;;;;6265691;22;20365;-83
2022/08/24 11:20:23;;;;;;;;;;;;;;;;;;6240213;22;20280;-83
2022/08/24 11:22:49;;;;;;;;;;;;;;;;;;6237211;22;20002;-83
2022/08/24 11:25:15;;;;;;;;;;;;;;;;;;6265066;22;20359;-83
2022/08/24 11:28:09;;;;;;;;;;;;;;;;;;;;;
2022/08/24 11:30:44;;;;;;;;;;;;;;;;;;6260977;22;19919;-84
2022/08/24 11:33:10;;;;;;;;;;;;;;;;;;6239646;22;19933;-84
2022/08/24 11:35:38;;;;;;;;;;;;;;;;;;6236459;22;20320;-84
2022/08/24 11:38:04;;;;;;;;;;;;;;;;;;6266552;22;19915;-84
2022/08/24 11:43:22;;;;;;;;;;;;;;;;;;6249207;22;19969;-84
2022/08/24 11:45:49;;;;;;;;;;;;;;;;;;6286831;22;19919;-85
2022/08/24 11:48:28;;;;;;;;;;;;;;;;;;;;;
2022/08/24 11:51:15;;;;;;;;;;;;;;;;;;6263500;22;19918;-84
2022/08/24 11:53:41;;;;;;;;;;;;;;;;;;6262964;22;19994;-84
2022/08/24 11:56:07;;;;;;;;;;;;;;;;;;6239228;22;19989;-84
2022/08/24 11:58:34;;;;;;;;;;;;;;;;;;6260521;22;19927;-85
2022/08/24 12:01:00;;;;;;;;;;;;;;;;;;6294087;22;19922;-85
2022/08/24 12:03:26;;;;;;;;;;;;;;;;;;6264437;22;19926;-84
2022/08/24 12:05:52;;;;;;;;;;;;;;;;;;6240065;22;19925;-84
2022/08/24 12:08:21;;;;;;;;;;;;;;;;;;6288907;22;19919;-84
2022/08/24 12:10:47;;;;;;;;;;;;;;;;;;6290345;22;20045;-84
2022/08/24 12:13:16;;;;;;;;;;;;;;;;;;6290469;22;19922;-84
2022/08/24 12:15:42;;;;;;;;;;;;;;;;;;6259941;22;19918;-85
2022/08/24 12:18:08;;;;;;;;;;;;;;;;;;6237467;22;20041;-84
2022/08/24 12:20:35;;;;;;;;;;;;;;;;;;6261126;22;20290;-84
2022/08/24 12:23:01;;;;;;;;;;;;;;;;;;6239556;22;19941;-84
2022/08/24 12:28:11;;;;;;;;;;;;;;;;;;6265942;22;20362;-84
2022/08/24 12:30:37;;;;;;;;;;;;;;;;;;6263375;22;19919;-83
2022/08/24 12:33:12;;;;;;;;;;;;;;;;;;6291138;22;19926;-84
2022/08/24 12:35:50;;;;;;;;;;;;;;;;;;6236774;22;19918;-84
2022/08/24 12:38:16;;;;;;;;;;;;;;;;;;6263149;22;19994;-84
2022/08/24 12:40:42;;;;;;;;;;;;;;;;;;6263660;22;20619;-84
2022/08/24 12:43:08;;;;;;;;;;;;;;;;;;6266737;22;19969;-84
2022/08/24 12:48:26;;;;;;;;;;;;;;;;;;6249215;22;20846;-84
2022/08/24 12:50:52;;;;;;;;;;;;;;;;;;6287391;22;19962;-84
2022/08/24 12:53:18;;;;;;;;;;;;;;;;;;6255598;22;19994;-84
2022/08/24 12:55:47;;;;;;;;;;;;;;;;;;6260991;22;19919;-85
2022/08/24 12:58:15;;;;;;;;;;;;;;;;;;6236091;22;20301;-84
2022/08/24 13:00:42;;;;;;;;;;;;;;;;;;6235359;22;19918;-85
2022/08/24 13:03:08;;;;;;;;;;;;;;;;;;6238906;22;19923;-85
2022/08/24 13:05:37;;;;;;;;;;;;;;;;;;6289576;22;19973;-84
2022/08/24 13:08:03;;;;;;;;;;;;;;;;;;6264594;22;19990;-85
2022/08/24 13:10:29;;;;;;;;;;;;;;;;;;6259912;22;19919;-85
2022/08/24 13:12:55;;;;;;;;;;;;;;;;;;6239806;22;19923;-85
2022/08/24 13:15:30;;;;;;;;;;;;;;;;;;6240896;22;19964;-84
2022/08/24 13:17:59;;;;;;;;;;;;;;;;;;6237126;22;19919;-83
2022/08/24 13:20:25;;;;;;;;;;;;;;;;;;6261694;22;19968;-83
2022/08/24 13:22:53;;;;;;;;;;;;;;;;;;6261025;22;19919;-84
2022/08/24 13:25:19;;;;;;;;;;;;;;;;;;6258627;22;20402;-83
2022/08/24 13:27:48;;;;;;;;;;;;;;;;;;6249154;22;20313;-84
2022/08/24 13:30:14;;;;;;;;;;;;;;;;;;6230159;22;19923;-83
2022/08/24 13:32:40;;;;;;;;;;;;;;;;;;6255492;22;20062;-83
2022/08/24 13:35:06;;;;;;;;;;;;;;;;;;6257788;22;20280;-84
2022/08/24 13:37:32;;;;;;;;;;;;;;;;;;6232695;22;19984;-84
2022/08/24 13:39:58;;;;;;;;;;;;;;;;;;6234300;22;19919;-84
2022/08/24 13:42:24;;;;;;;;;;;;;;;;;;6235903;22;20029;-84
2022/08/24 13:44:53;;;;;;;;;;;;;;;;;;6259424;22;20044;-84
2022/08/24 13:47:19;;;;;;;;;;;;;;;;;;6263911;22;19919;-84
2022/08/24 13:49:45;;;;;;;;;;;;;;;;;;6232957;22;19996;-85
2022/08/24 13:52:11;;;;;;;;;;;;;;;;;;6234908;22;19946;-85
2022/08/24 13:54:37;;;;;;;;;;;;;;;;;;6261223;22;20020;-84
2022/08/24 13:57:03;;;;;;;;;;;;;;;;;;6285909;22;20334;-84
2022/08/24 13:59:30;;;;;;;;;;;;;;;;;;6259399;22;19991;-84
2022/08/24 14:01:56;;;;;;;;;;;;;;;;;;6288522;22;19968;-85
2022/08/24 14:04:22;;;;;;;;;;;;;;;;;;6232145;22;19926;-85
2022/08/24 14:06:54;;;;;;;;;;;;;;;;;;6238226;22;19971;-85
2022/08/24 14:09:20;;;;;;;;;;;;;;;;;;6261939;22;20089;-85
2022/08/24 14:11:47;;;;;;;;;;;;;;;;;;6233667;22;19919;-85
2022/08/24 14:14:13;;;;;;;;;;;;;;;;;;6262469;22;19919;-85
2022/08/24 14:19:24;;;;;;;;;;;;;;;;;;6263283;22;19946;-84
2022/08/24 14:21:50;;;;;;;;;;;;;;;;;;6257953;22;19919;-85
2022/08/24 14:24:16;;;;;;;;;;;;;;;;;;6238164;22;19923;-85
2022/08/24 14:26:45;;;;;;;;;;;;;;;;;;6269540;22;20231;-84
2022/08/24 14:29:14;;;;;;;;;;;;;;;;;;6261023;22;19915;-85
2022/08/24 14:31:46;;;;;;;;;;;;;;;;;;6284836;22;20438;-85
2022/08/24 14:34:12;;;;;;;;;;;;;;;;;;6262074;22;19919;-84
2022/08/24 14:36:38;;;;;;;;;;;;;;;;;;6284829;22;19919;-84
2022/08/24 14:39:10;;;;;;;;;;;;;;;;;;6292550;22;19919;-84
2022/08/24 14:41:36;;;;;;;;;;;;;;;;;;6260333;22;20408;-84
2022/08/24 14:44:04;;;;;;;;;;;;;;;;;;6289299;22;19971;-84
2022/08/24 14:46:34;;;;;;;;;;;;;;;;;;6288005;22;19919;-83
2022/08/24 14:49:00;;;;;;;;;;;;;;;;;;6241409;22;19963;-84
2022/08/24 14:51:34;;;;;;;;;;;;;;;;;;6261360;22;19927;-83
2022/08/24 14:54:02;;;;;;;;;;;;;;;;;;6261341;22;19915;-84
2022/08/24 14:56:30;;;;;;;;;;;;;;;;;;6262985;22;19926;-85
2022/08/24 14:59:10;;;;;;;;;;;;;;;;;;6288360;22;20340;-84
2022/08/24 15:01:39;;;;;;;;;;;;;;;;;;6253851;22;20287;-84
2022/08/24 15:04:05;;;;;;;;;;;;;;;;;;6230793;22;19992;-84
2022/08/24 15:06:35;;;;;;;;;;;;;;;;;;6232041;22;19922;-84
2022/08/24 15:09:01;;;;;;;;;;;;;;;;;;6234155;22;19923;-84
2022/08/24 15:11:27;;;;;;;;;;;;;;;;;;6233504;22;20297;-84
2022/08/24 15:13:55;;;;;;;;;;;;;;;;;;6287029;22;19955;-84
2022/08/24 15:16:25;;;;;;;;;;;;;;;;;;6283818;22;20044;-85
2022/08/24 15:18:54;;;;;;;;;;;;;;;;;;6261194;22;19919;-84
2022/08/24 15:21:35;;;;;;;;;;;;;;;;;;6286306;22;19998;-84
2022/08/24 15:24:05;;;;;;;;;;;;;;;;;;6215452;23;19955;-84
2022/08/24 15:26:31;;;;;;;;;;;;;;;;;;6197292;23;19933;-85
2022/08/24 15:28:57;;;;;;;;;;;;;;;;;;6218825;23;19986;-84
2022/08/24 15:31:25;;;;;;;;;;;;;;;;;;6166969;23;20030;-84
2022/08/24 15:33:51;;;;;;;;;;;;;;;;;;6166112;23;19920;-84
2022/08/24 15:36:31;;;;;;;;;;;;;;;;;;6196740;23;19965;-84
2022/08/24 15:39:13;;;;;;;;;;;;;;;;;;;;;
2022/08/24 15:41:40;;;;;;;;;;;;;;;;;;6195689;23;19951;-84
2022/08/24 15:44:07;;;;;;;;;;;;;;;;;;6199059;23;20011;-85
2022/08/24 15:46:33;;;;;;;;;;;;;;;;;;6197934;23;19928;-84
2022/08/24 15:48:59;;;;;;;;;;;;;;;;;;6218944;22;20284;-84
2022/08/24 15:51:25;;;;;;;;;;;;;;;;;;6235116;22;19994;-84
2022/08/24 15:53:51;;;;;;;;;;;;;;;;;;6238935;22;19937;-84
2022/08/24 15:56:18;;;;;;;;;;;;;;;;;;6261402;22;19989;-84
2022/08/24 15:58:44;;;;;;;;;;;;;;;;;;6262985;22;19922;-84
2022/08/24 16:03:58;;;;;;;;;;;;;;;;;;6260421;22;19919;-84
2022/08/24 16:09:16;;;;;;;;;;;;;;;;;;6262404;22;19965;-83
2022/08/24 16:11:44;;;;;;;;;;;;;;;;;;6260276;22;20582;-84
2022/08/24 16:14:10;;;;;;;;;;;;;;;;;;6263704;22;19919;-83
2022/08/24 16:16:49;;;;;;;;;;;;;;;;;;;;;
2022/08/24 16:19:41;;;;;;;;;;;;;;;;;;6203929;23;19927;-84
2022/08/24 16:22:16;;;;;;;;;;;;;;;;;;6261158;22;19915;-83
2022/08/24 16:24:49;;;;;;;;;;;;;;;;;;6237364;22;19915;-84
2022/08/24 16:27:15;;;;;;;;;;;;;;;;;;6240415;22;19991;-84
2022/08/24 16:29:47;;;;;;;;;;;;;;;;;;6233278;22;20374;-84
2022/08/24 16:32:14;;;;;;;;;;;;;;;;;;6237063;22;19923;-84
2022/08/24 16:34:40;;;;;;;;;;;;;;;;;;6232833;22;20476;-84
2022/08/24 16:37:09;;;;;;;;;;;;;;;;;;6235517;22;19982;-84
2022/08/24 16:39:35;;;;;;;;;;;;;;;;;;6256851;22;20410;-84
2022/08/24 16:42:01;;;;;;;;;;;;;;;;;;6239729;22;19990;-84
2022/08/24 16:44:27;;;;;;;;;;;;;;;;;;6292361;22;19915;-84
2022/08/24 16:46:53;;;;;;;;;;;;;;;;;;6263143;22;19930;-84
2022/08/24 16:49:19;;;;;;;;;;;;;;;;;;6234071;22;19954;-84
2022/08/24 16:51:45;;;;;;;;;;;;;;;;;;6205193;22;20499;-84
2022/08/24 16:54:11;;;;;;;;;;;;;;;;;;6232621;22;19919;-84
2022/08/24 16:56:37;;;;;;;;;;;;;;;;;;6204234;22;19919;-84
2022/08/24 16:59:05;;;;;;;;;;;;;;;;;;6234778;22;19919;-84
2022/08/24 17:01:34;;;;;;;;;;;;;;;;;;6227691;22;20168;-85
2022/08/24 17:04:00;;;;;;;;;;;;;;;;;;6204763;22;19999;-83
2022/08/24 17:06:26;;;;;;;;;;;;;;;;;;6229625;22;19955;-83
2022/08/24 17:08:55;;;;;;;;;;;;;;;;;;6203556;22;19919;-84
2022/08/24 17:11:27;;;;;;;;;;;;;;;;;;6209132;22;19958;-84
2022/08/24 17:13:52;;;;;;;;;;;;;;;;;;6231085;22;19923;-84
2022/08/24 17:16:19;;;;;;;;;;;;;;;;;;6234247;22;19915;-84
2022/08/24 17:18:45;;;;;;;;;;;;;;;;;;6206512;22;19942;-84
2022/08/24 17:21:11;;;;;;;;;;;;;;;;;;6233730;22;19986;-83
2022/08/24 17:23:39;;;;;;;;;;;;;;;;;;6233253;22;19946;-84
2022/08/24 17:26:05;;;;;;;;;;;;;;;;;;6211185;22;20300;-84
2022/08/24 17:28:31;;;;;;;;;;;;;;;;;;6205033;22;20213;-85